map of MUH home
MUH - Airport
Location
City:  Mersa Matruh, Matruh (Matrouh), Egypt
ICAO:HEMM
IATA:MUH

Details
Type:Airport (Aerodrome, Airfield)
Use:Public/Civil
Latitude:3119'31"N (31.325356)
Longitude:2713'18"E (27.221689)
Datum:WGS 1984
Elevation:94 ft (29 m)
Variation:4.31E (WMM2015 magnetic declination)
0.09 annual change
Runways:2
Longest:9843 × 148 ft (3000 × 45 m), paved

Time
Time Zone:UTC+2
Local Time:

Weather
METAR:HEMM 170600Z 00000KT 9999 FEW020 21/17 Q1017 NOSIG
TAF:HEMM 170500Z 1706/1812 VRB03KT 9999 FEW020
BECMG 1707/1709 01008KT SCT020

Related Locations
Nearby:
Farthest:TUB: 11848 mi / 19068 km
Tubuai, Tubuai Islands, Austral Islands, PF

Find:

   beyond  
but within

Other Information
Maps:
NOTAMs:
Links:
Sources:

  
  • flag of Egypt
  • flag of Matruh (Matrouh)
  

Sectional Chart

Flight Planning
at skyvector.com

Satellite Image

Google Maps Satellite view

 

Copyright © 2004-2018 Karl L. Swartz. All rights reserved.
The Great Circle Mapper name and logo are trademarks of the Great Circle Mapper.
All other trademarks mentioned herein belong to their respective owners.
Please see credits for attibutions and further copyright information.

  Follow gcmap on Facebook Follow gcmap on Twitter Follow gcmap on Google+ GCmap on LinkedIn

hCard Microformat

Geo Microformat